sensor_id;sensor_type;location;lat;lon;timestamp;pressure;altitude;pressure_sealevel;temperature;humidity
50977;BME280;36992;48.200;12.418;2022-07-23T00:00:11;96823.25;;;29.56;38.84
50977;BME280;36992;48.200;12.418;2022-07-23T00:02:37;96812.19;;;29.53;38.66
50977;BME280;36992;48.200;12.418;2022-07-23T00:05:05;96806.25;;;29.51;38.11
50977;BME280;36992;48.200;12.418;2022-07-23T00:07:31;96801.94;;;29.50;38.81
50977;BME280;36992;48.200;12.418;2022-07-23T00:09:58;96798.78;;;29.47;39.56
50977;BME280;36992;48.200;12.418;2022-07-23T00:12:24;96794.00;;;29.48;39.63
50977;BME280;36992;48.200;12.418;2022-07-23T00:14:51;96794.00;;;29.48;38.74
50977;BME280;36992;48.200;12.418;2022-07-23T00:17:19;96789.25;;;29.48;38.37
50977;BME280;36992;48.200;12.418;2022-07-23T00:19:45;96771.81;;;29.48;38.41
50977;BME280;36992;48.200;12.418;2022-07-23T00:22:12;96763.50;;;29.48;39.16
50977;BME280;36992;48.200;12.418;2022-07-23T00:24:38;96761.50;;;29.48;39.18
50977;BME280;36992;48.200;12.418;2022-07-23T00:27:05;96746.06;;;29.47;39.27
50977;BME280;36992;48.200;12.418;2022-07-23T00:29:31;96743.31;;;29.47;39.13
50977;BME280;36992;48.200;12.418;2022-07-23T00:31:58;96732.22;;;29.47;38.42
50977;BME280;36992;48.200;12.418;2022-07-23T00:34:25;96721.88;;;29.48;38.13
50977;BME280;36992;48.200;12.418;2022-07-23T00:36:52;96707.25;;;29.44;38.55
50977;BME280;36992;48.200;12.418;2022-07-23T00:39:19;96691.03;;;29.42;38.95
50977;BME280;36992;48.200;12.418;2022-07-23T00:41:46;96687.09;;;29.40;39.26
50977;BME280;36992;48.200;12.418;2022-07-23T00:44:17;96685.47;;;29.42;39.04
50977;BME280;36992;48.200;12.418;2022-07-23T00:46:48;96683.13;;;29.41;38.76
50977;BME280;36992;48.200;12.418;2022-07-23T00:49:15;96681.59;;;29.36;37.99
50977;BME280;36992;48.200;12.418;2022-07-23T00:51:43;96683.16;;;29.37;38.26
50977;BME280;36992;48.200;12.418;2022-07-23T00:54:10;96683.22;;;29.33;37.71
50977;BME280;36992;48.200;12.418;2022-07-23T00:56:37;96679.28;;;29.31;38.29
50977;BME280;36992;48.200;12.418;2022-07-23T00:59:03;96676.94;;;29.29;37.86
50977;BME280;36992;48.200;12.418;2022-07-23T01:01:31;96673.81;;;29.27;38.02
50977;BME280;36992;48.200;12.418;2022-07-23T01:03:58;96660.34;;;29.26;38.49
50977;BME280;36992;48.200;12.418;2022-07-23T01:06:24;96662.75;;;29.24;38.37
50977;BME280;36992;48.200;12.418;2022-07-23T01:08:53;96655.59;;;29.26;38.56
50977;BME280;36992;48.200;12.418;2022-07-23T01:11:20;96654.84;;;29.22;38.13
50977;BME280;36992;48.200;12.418;2022-07-23T01:13:47;96655.25;;;29.20;38.05
50977;BME280;36992;48.200;12.418;2022-07-23T01:16:13;96648.53;;;29.21;38.58
50977;BME280;36992;48.200;12.418;2022-07-23T01:18:40;96656.06;;;29.21;39.09
50977;BME280;36992;48.200;12.418;2022-07-23T01:21:08;96657.22;;;29.24;39.04
50977;BME280;36992;48.200;12.418;2022-07-23T01:23:39;96659.63;;;29.21;38.87
50977;BME280;36992;48.200;12.418;2022-07-23T01:26:06;96656.47;;;29.19;39.15
50977;BME280;36992;48.200;12.418;2022-07-23T01:28:32;96656.88;;;29.18;39.53
50977;BME280;36992;48.200;12.418;2022-07-23T01:30:59;96662.88;;;29.16;39.44
50977;BME280;36992;48.200;12.418;2022-07-23T01:33:25;96678.41;;;29.10;39.26
50977;BME280;36992;48.200;12.418;2022-07-23T01:35:53;96672.97;;;29.03;39.74
50977;BME280;36992;48.200;12.418;2022-07-23T01:38:19;96678.97;;;28.98;39.65
50977;BME280;36992;48.200;12.418;2022-07-23T01:40:47;96681.34;;;28.95;39.26
50977;BME280;36992;48.200;12.418;2022-07-23T01:43:13;96684.59;;;28.90;39.60
50977;BME280;36992;48.200;12.418;2022-07-23T01:45:40;96700.84;;;28.88;39.94
50977;BME280;36992;48.200;12.418;2022-07-23T01:48:08;96710.78;;;28.86;40.16
50977;BME280;36992;48.200;12.418;2022-07-23T01:50:34;96713.19;;;28.80;39.41
50977;BME280;36992;48.200;12.418;2022-07-23T01:53:01;96720.75;;;28.76;39.94
50977;BME280;36992;48.200;12.418;2022-07-23T01:55:27;96726.75;;;28.71;39.43
50977;BME280;36992;48.200;12.418;2022-07-23T01:57:55;96741.84;;;28.66;39.10
50977;BME280;36992;48.200;12.418;2022-07-23T02:00:21;96755.81;;;28.55;39.34
50977;BME280;36992;48.200;12.418;2022-07-23T02:02:48;96801.41;;;28.47;38.92
50977;BME280;36992;48.200;12.418;2022-07-23T02:05:14;96806.22;;;28.39;38.38
50977;BME280;36992;48.200;12.418;2022-07-23T02:07:41;96815.44;;;28.25;38.09
50977;BME280;36992;48.200;12.418;2022-07-23T02:10:08;96799.66;;;28.14;36.88
50977;BME280;36992;48.200;12.418;2022-07-23T02:12:34;96799.72;;;28.07;37.85
50977;BME280;36992;48.200;12.418;2022-07-23T02:15:02;96805.69;;;28.02;38.13
50977;BME280;36992;48.200;12.418;2022-07-23T02:17:29;96824.31;;;27.98;37.77
50977;BME280;36992;48.200;12.418;2022-07-23T02:19:55;96815.63;;;27.92;37.46
50977;BME280;36992;48.200;12.418;2022-07-23T02:22:22;96818.03;;;27.90;36.48
50977;BME280;36992;48.200;12.418;2022-07-23T02:24:48;96822.41;;;27.87;35.89
50977;BME280;36992;48.200;12.418;2022-07-23T02:27:15;96821.63;;;27.83;35.51
50977;BME280;36992;48.200;12.418;2022-07-23T02:29:41;96832.28;;;27.85;34.98
50977;BME280;36992;48.200;12.418;2022-07-23T02:32:09;96831.53;;;27.84;35.65
50977;BME280;36992;48.200;12.418;2022-07-23T02:34:36;96835.88;;;27.82;35.31
50977;BME280;36992;48.200;12.418;2022-07-23T02:37:02;96846.53;;;27.80;34.53
50977;BME280;36992;48.200;12.418;2022-07-23T02:39:29;96844.59;;;27.80;34.48
50977;BME280;36992;48.200;12.418;2022-07-23T02:41:55;96821.66;;;27.76;33.67
50977;BME280;36992;48.200;12.418;2022-07-23T02:44:21;96835.94;;;27.74;33.78
50977;BME280;36992;48.200;12.418;2022-07-23T02:46:48;96831.22;;;27.68;33.41
50977;BME280;36992;48.200;12.418;2022-07-23T02:49:16;96839.56;;;27.60;33.55
50977;BME280;36992;48.200;12.418;2022-07-23T02:51:42;96828.47;;;27.60;33.52
50977;BME280;36992;48.200;12.418;2022-07-23T02:54:08;96841.50;;;27.56;33.14
50977;BME280;36992;48.200;12.418;2022-07-23T02:56:35;96826.50;;;27.54;33.53
50977;BME280;36992;48.200;12.418;2022-07-23T02:59:01;96814.66;;;27.53;33.41
50977;BME280;36992;48.200;12.418;2022-07-23T03:01:28;96818.63;;;27.48;33.39
50977;BME280;36992;48.200;12.418;2022-07-23T03:03:54;96811.91;;;27.50;33.40
50977;BME280;36992;48.200;12.418;2022-07-23T03:06:22;96800.88;;;27.42;33.64
50977;BME280;36992;48.200;12.418;2022-07-23T03:08:49;96796.59;;;27.30;33.96
50977;BME280;36992;48.200;12.418;2022-07-23T03:11:15;96809.59;;;27.33;34.16
50977;BME280;36992;48.200;12.418;2022-07-23T03:13:42;96798.16;;;27.31;34.39
50977;BME280;36992;48.200;12.418;2022-07-23T03:16:08;96800.16;;;27.31;34.18
50977;BME280;36992;48.200;12.418;2022-07-23T03:18:35;96817.94;;;27.19;34.84
50977;BME280;36992;48.200;12.418;2022-07-23T03:21:01;96813.25;;;27.16;34.89
50977;BME280;36992;48.200;12.418;2022-07-23T03:23:29;96810.88;;;27.11;35.20
50977;BME280;36992;48.200;12.418;2022-07-23T03:25:56;96806.13;;;27.07;34.93
50977;BME280;36992;48.200;12.418;2022-07-23T03:28:22;96810.09;;;27.06;35.10
50977;BME280;36992;48.200;12.418;2022-07-23T03:30:49;96806.16;;;27.00;35.31
50977;BME280;36992;48.200;12.418;2022-07-23T03:33:16;96794.31;;;26.96;35.68
50977;BME280;36992;48.200;12.418;2022-07-23T03:35:43;96805.38;;;26.92;35.67
50977;BME280;36992;48.200;12.418;2022-07-23T03:38:09;96813.28;;;26.94;36.24
50977;BME280;36992;48.200;12.418;2022-07-23T03:40:37;96834.63;;;26.97;37.01
50977;BME280;36992;48.200;12.418;2022-07-23T03:43:04;96855.91;;;27.00;36.77
50977;BME280;36992;48.200;12.418;2022-07-23T03:45:31;96862.22;;;27.04;36.08
50977;BME280;36992;48.200;12.418;2022-07-23T03:47:58;96860.66;;;27.07;35.59
50977;BME280;36992;48.200;12.418;2022-07-23T03:50:24;96855.09;;;27.11;36.40
50977;BME280;36992;48.200;12.418;2022-07-23T03:52:51;96867.72;;;27.15;36.82
50977;BME280;36992;48.200;12.418;2022-07-23T03:55:19;96874.81;;;27.20;36.17
50977;BME280;36992;48.200;12.418;2022-07-23T03:57:47;96873.22;;;27.26;37.11
50977;BME280;36992;48.200;12.418;2022-07-23T04:00:14;96874.78;;;27.27;36.11
50977;BME280;36992;48.200;12.418;2022-07-23T04:02:40;96864.91;;;27.30;35.38
50977;BME280;36992;48.200;12.418;2022-07-23T04:05:07;96866.09;;;27.32;35.65
50977;BME280;36992;48.200;12.418;2022-07-23T04:07:34;96862.53;;;27.36;36.59
50977;BME280;36992;48.200;12.418;2022-07-23T04:10:00;96860.16;;;27.38;35.68
50977;BME280;36992;48.200;12.418;2022-07-23T04:12:27;96860.53;;;27.40;36.43
50977;BME280;36992;48.200;12.418;2022-07-23T04:14:54;96869.22;;;27.42;37.03
50977;BME280;36992;48.200;12.418;2022-07-23T04:17:21;96859.75;;;27.39;36.70
50977;BME280;36992;48.200;12.418;2022-07-23T04:19:47;96866.88;;;27.40;36.02
50977;BME280;36992;48.200;12.418;2022-07-23T04:22:14;96866.88;;;27.40;35.93
50977;BME280;36992;48.200;12.418;2022-07-23T04:24:40;96858.19;;;27.38;35.37
50977;BME280;36992;48.200;12.418;2022-07-23T04:27:07;96853.84;;;27.37;36.05
50977;BME280;36992;48.200;12.418;2022-07-23T04:29:33;96847.53;;;27.37;35.74
50977;BME280;36992;48.200;12.418;2022-07-23T04:32:01;96847.13;;;27.34;35.27
50977;BME280;36992;48.200;12.418;2022-07-23T04:34:28;96843.19;;;27.32;36.13
50977;BME280;36992;48.200;12.418;2022-07-23T04:36:54;96840.03;;;27.30;35.99
50977;BME280;36992;48.200;12.418;2022-07-23T04:39:20;96838.06;;;27.30;36.32
50977;BME280;36992;48.200;12.418;2022-07-23T04:41:47;96840.44;;;27.28;35.70
50977;BME280;36992;48.200;12.418;2022-07-23T04:44:14;96835.31;;;27.27;35.67
50977;BME280;36992;48.200;12.418;2022-07-23T04:46:40;96845.56;;;27.26;37.24
50977;BME280;36992;48.200;12.418;2022-07-23T04:49:08;96834.50;;;27.26;35.78
50977;BME280;36992;48.200;12.418;2022-07-23T04:51:34;96829.78;;;27.23;36.29
50977;BME280;36992;48.200;12.418;2022-07-23T04:54:01;96844.81;;;27.22;36.85
50977;BME280;36992;48.200;12.418;2022-07-23T04:56:27;96823.47;;;27.23;36.25
50977;BME280;36992;48.200;12.418;2022-07-23T04:58:54;96799.78;;;27.22;35.95
50977;BME280;36992;48.200;12.418;2022-07-23T05:01:20;96818.34;;;27.21;35.85
50977;BME280;36992;48.200;12.418;2022-07-23T05:03:47;96821.91;;;27.22;37.33
50977;BME280;36992;48.200;12.418;2022-07-23T05:06:15;96804.50;;;27.21;37.99
50977;BME280;36992;48.200;12.418;2022-07-23T05:08:42;96809.66;;;27.19;38.01
50977;BME280;36992;48.200;12.418;2022-07-23T05:11:08;96820.34;;;27.17;38.75
50977;BME280;36992;48.200;12.418;2022-07-23T05:13:35;96840.47;;;27.14;38.90
50977;BME280;36992;48.200;12.418;2022-07-23T05:16:01;96826.28;;;27.12;38.99
50977;BME280;36992;48.200;12.418;2022-07-23T05:18:28;96822.72;;;27.11;39.24
50977;BME280;36992;48.200;12.418;2022-07-23T05:20:54;96821.13;;;27.10;39.12
50977;BME280;36992;48.200;12.418;2022-07-23T05:23:22;96811.66;;;27.11;39.47
50977;BME280;36992;48.200;12.418;2022-07-23T05:25:48;96802.19;;;27.09;40.05
50977;BME280;36992;48.200;12.418;2022-07-23T05:28:16;96803.38;;;27.07;39.34
50977;BME280;36992;48.200;12.418;2022-07-23T05:30:42;96801.44;;;27.04;39.29
50977;BME280;36992;48.200;12.418;2022-07-23T05:33:09;96801.44;;;27.01;39.82
50977;BME280;36992;48.200;12.418;2022-07-23T05:35:35;96801.03;;;26.99;40.33
50977;BME280;36992;48.200;12.418;2022-07-23T05:38:02;96794.31;;;26.96;39.65
50977;BME280;36992;48.200;12.418;2022-07-23T05:40:30;96789.59;;;26.97;39.94
50977;BME280;36992;48.200;12.418;2022-07-23T05:42:58;96781.69;;;26.95;40.66
50977;BME280;36992;48.200;12.418;2022-07-23T05:45:24;96776.16;;;26.95;40.43
50977;BME280;36992;48.200;12.418;2022-07-23T05:47:51;96772.22;;;26.96;39.47
50977;BME280;36992;48.200;12.418;2022-07-23T05:50:17;96763.91;;;26.96;39.72
50977;BME280;36992;48.200;12.418;2022-07-23T05:52:44;96750.91;;;26.97;39.83
50977;BME280;36992;48.200;12.418;2022-07-23T05:55:12;96744.97;;;26.98;39.53
50977;BME280;36992;48.200;12.418;2022-07-23T05:57:40;96754.03;;;27.02;39.38
50977;BME280;36992;48.200;12.418;2022-07-23T06:00:08;96767.84;;;27.02;39.82
50977;BME280;36992;48.200;12.418;2022-07-23T06:02:35;96772.22;;;27.03;39.49
50977;BME280;36992;48.200;12.418;2022-07-23T06:05:02;96783.28;;;27.03;40.32
50977;BME280;36992;48.200;12.418;2022-07-23T06:07:28;96784.44;;;27.02;39.61
50977;BME280;36992;48.200;12.418;2022-07-23T06:09:55;96785.25;;;26.99;39.83
50977;BME280;36992;48.200;12.418;2022-07-23T06:12:21;96777.75;;;26.96;39.90
50977;BME280;36992;48.200;12.418;2022-07-23T06:14:49;96787.22;;;26.95;40.06
50977;BME280;36992;48.200;12.418;2022-07-23T06:17:17;96788.03;;;26.92;40.61
50977;BME280;36992;48.200;12.418;2022-07-23T06:19:44;96784.84;;;26.90;40.53
50977;BME280;36992;48.200;12.418;2022-07-23T06:22:10;96784.84;;;26.90;40.53
50977;BME280;36992;48.200;12.418;2022-07-23T06:24:37;96782.50;;;26.92;40.81
50977;BME280;36992;48.200;12.418;2022-07-23T06:27:04;96778.56;;;26.93;40.64
50977;BME280;36992;48.200;12.418;2022-07-23T06:29:30;96770.66;;;26.95;40.09
50977;BME280;36992;48.200;12.418;2022-07-23T06:31:58;96773.81;;;26.97;40.56
50977;BME280;36992;48.200;12.418;2022-07-23T06:34:25;96775.78;;;26.97;40.62
50977;BME280;36992;48.200;12.418;2022-07-23T06:36:51;96790.78;;;26.96;40.09
50977;BME280;36992;48.200;12.418;2022-07-23T06:39:18;96786.03;;;26.96;40.57
50977;BME280;36992;48.200;12.418;2022-07-23T06:41:44;96797.50;;;26.95;40.50
50977;BME280;36992;48.200;12.418;2022-07-23T06:44:11;96797.09;;;26.92;40.99
50977;BME280;36992;48.200;12.418;2022-07-23T06:46:37;96792.38;;;26.93;40.46
50977;BME280;36992;48.200;12.418;2022-07-23T06:49:05;96793.94;;;26.94;40.27
50977;BME280;36992;48.200;12.418;2022-07-23T06:51:32;96802.22;;;26.94;40.08
50977;BME280;36992;48.200;12.418;2022-07-23T06:53:58;96812.91;;;26.96;40.43
50977;BME280;36992;48.200;12.418;2022-07-23T06:56:25;96812.50;;;26.97;41.30
50977;BME280;36992;48.200;12.418;2022-07-23T06:58:51;96830.66;;;26.98;41.21
50977;BME280;36992;48.200;12.418;2022-07-23T07:01:18;96825.13;;;26.98;40.64
50977;BME280;36992;48.200;12.418;2022-07-23T07:03:44;96824.34;;;26.98;40.07
50977;BME280;36992;48.200;12.418;2022-07-23T07:06:13;96817.22;;;27.00;40.06
50977;BME280;36992;48.200;12.418;2022-07-23T07:08:39;96833.81;;;27.00;40.16
50977;BME280;36992;48.200;12.418;2022-07-23T07:11:08;96828.28;;;27.00;40.13
50977;BME280;36992;48.200;12.418;2022-07-23T07:13:35;96828.28;;;27.00;40.74
50977;BME280;36992;48.200;12.418;2022-07-23T07:16:01;96831.41;;;27.02;40.66
50977;BME280;36992;48.200;12.418;2022-07-23T07:18:28;96833.03;;;27.00;40.40
50977;BME280;36992;48.200;12.418;2022-07-23T07:20:54;96843.28;;;26.99;40.81
50977;BME280;36992;48.200;12.418;2022-07-23T07:23:22;96833.81;;;27.00;41.20
50977;BME280;36992;48.200;12.418;2022-07-23T07:25:49;96837.38;;;26.97;40.99
50977;BME280;36992;48.200;12.418;2022-07-23T07:28:15;96839.34;;;26.97;41.13
50977;BME280;36992;48.200;12.418;2022-07-23T07:30:42;96852.38;;;26.96;40.88
50977;BME280;36992;48.200;12.418;2022-07-23T07:33:08;96853.16;;;26.97;40.87
50977;BME280;36992;48.200;12.418;2022-07-23T07:35:34;96846.84;;;26.96;40.78
50977;BME280;36992;48.200;12.418;2022-07-23T07:38:01;96849.59;;;26.96;40.16
50977;BME280;36992;48.200;12.418;2022-07-23T07:40:29;96849.63;;;27.00;40.37
50977;BME280;36992;48.200;12.418;2022-07-23T07:42:55;96851.56;;;26.99;40.48
50977;BME280;36992;48.200;12.418;2022-07-23T07:45:23;96851.19;;;27.01;40.45
50977;BME280;36992;48.200;12.418;2022-07-23T07:47:50;96859.84;;;27.03;41.05
50977;BME280;36992;48.200;12.418;2022-07-23T07:50:17;96868.94;;;27.03;41.32
50977;BME280;36992;48.200;12.418;2022-07-23T07:52:44;96883.94;;;27.02;41.29
50977;BME280;36992;48.200;12.418;2022-07-23T07:55:10;96885.94;;;27.02;41.99
50977;BME280;36992;48.200;12.418;2022-07-23T07:57:39;96884.34;;;27.04;41.80
50977;BME280;36992;48.200;12.418;2022-07-23T08:00:07;96889.88;;;27.01;42.46
50977;BME280;36992;48.200;12.418;2022-07-23T08:02:40;96884.34;;;27.04;41.72
50977;BME280;36992;48.200;12.418;2022-07-23T08:05:07;96881.19;;;26.99;42.34
50977;BME280;36992;48.200;12.418;2022-07-23T08:07:34;96881.19;;;26.99;41.91
50977;BME280;36992;48.200;12.418;2022-07-23T08:10:00;96878.84;;;26.97;42.64
50977;BME280;36992;48.200;12.418;2022-07-23T08:12:27;96882.38;;;26.98;41.52
50977;BME280;36992;48.200;12.418;2022-07-23T08:14:54;96876.44;;;26.99;41.62
50977;BME280;36992;48.200;12.418;2022-07-23T08:17:21;96875.25;;;27.00;41.83
50977;BME280;36992;48.200;12.418;2022-07-23T08:19:47;96881.16;;;27.02;42.52
50977;BME280;36992;48.200;12.418;2022-07-23T08:22:14;96874.88;;;27.05;41.36
50977;BME280;36992;48.200;12.418;2022-07-23T08:24:40;96880.78;;;27.07;42.08
50977;BME280;36992;48.200;12.418;2022-07-23T08:27:07;96878.00;;;27.11;41.32
50977;BME280;36992;48.200;12.418;2022-07-23T08:29:33;96881.94;;;27.14;41.63
50977;BME280;36992;48.200;12.418;2022-07-23T08:32:01;96891.81;;;27.18;41.56
50977;BME280;36992;48.200;12.418;2022-07-23T08:34:27;96885.88;;;27.20;40.85
50977;BME280;36992;48.200;12.418;2022-07-23T08:36:54;96894.97;;;27.20;41.45
50977;BME280;36992;48.200;12.418;2022-07-23T08:39:20;96893.38;;;27.23;41.20
50977;BME280;36992;48.200;12.418;2022-07-23T08:41:47;96887.84;;;27.23;40.92
50977;BME280;36992;48.200;12.418;2022-07-23T08:44:15;96896.91;;;27.27;41.25
50977;BME280;36992;48.200;12.418;2022-07-23T08:46:43;96896.91;;;27.27;41.11
50977;BME280;36992;48.200;12.418;2022-07-23T08:49:12;96899.69;;;27.27;41.37
50977;BME280;36992;48.200;12.418;2022-07-23T08:51:39;96898.09;;;27.26;41.26
50977;BME280;36992;48.200;12.418;2022-07-23T08:54:06;96893.78;;;27.25;41.83
50977;BME280;36992;48.200;12.418;2022-07-23T08:56:33;96893.00;;;27.25;41.74
50977;BME280;36992;48.200;12.418;2022-07-23T08:58:59;96891.00;;;27.25;41.31
50977;BME280;36992;48.200;12.418;2022-07-23T09:01:26;96901.69;;;27.23;41.71
50977;BME280;36992;48.200;12.418;2022-07-23T09:03:52;96896.94;;;27.24;42.20
50977;BME280;36992;48.200;12.418;2022-07-23T09:06:20;96902.06;;;27.25;41.76
50977;BME280;36992;48.200;12.418;2022-07-23T09:08:47;96903.25;;;27.24;42.07
50977;BME280;36992;48.200;12.418;2022-07-23T09:11:16;96902.44;;;27.27;41.82
50977;BME280;36992;48.200;12.418;2022-07-23T09:13:47;96911.16;;;27.29;42.26
50977;BME280;36992;48.200;12.418;2022-07-23T09:16:15;96914.31;;;27.24;42.57
50977;BME280;36992;48.200;12.418;2022-07-23T09:18:46;96906.03;;;27.24;42.15
50977;BME280;36992;48.200;12.418;2022-07-23T09:21:22;96924.97;;;27.29;41.57
50977;BME280;36992;48.200;12.418;2022-07-23T09:23:52;96937.63;;;27.23;42.01
50977;BME280;36992;48.200;12.418;2022-07-23T09:26:27;96925.38;;;27.24;41.63
50977;BME280;36992;48.200;12.418;2022-07-23T09:28:58;96930.91;;;27.20;42.29
50977;BME280;36992;48.200;12.418;2022-07-23T09:31:31;96930.13;;;27.20;42.54
50977;BME280;36992;48.200;12.418;2022-07-23T09:34:07;96944.34;;;27.22;41.87
50977;BME280;36992;48.200;12.418;2022-07-23T09:36:35;96937.66;;;27.16;41.69
50977;BME280;36992;48.200;12.418;2022-07-23T09:39:02;96932.50;;;27.11;42.04
50977;BME280;36992;48.200;12.418;2022-07-23T09:41:34;96935.28;;;27.11;41.62
50977;BME280;36992;48.200;12.418;2022-07-23T09:44:07;96931.31;;;27.12;41.68
50977;BME280;36992;48.200;12.418;2022-07-23T09:46:34;96928.94;;;27.06;41.94
50977;BME280;36992;48.200;12.418;2022-07-23T09:49:14;96932.53;;;27.03;41.52
50977;BME280;36992;48.200;12.418;2022-07-23T09:51:47;96922.22;;;27.07;41.49
50977;BME280;36992;48.200;12.418;2022-07-23T09:54:26;96927.75;;;27.11;41.65
50977;BME280;36992;48.200;12.418;2022-07-23T09:56:57;96946.72;;;27.05;42.17
50977;BME280;36992;48.200;12.418;2022-07-23T09:59:25;96938.06;;;27.07;41.70
50977;BME280;36992;48.200;12.418;2022-07-23T10:01:54;96930.94;;;27.10;41.94
50977;BME280;36992;48.200;12.418;2022-07-23T10:04:23;96953.06;;;27.06;42.44
50977;BME280;36992;48.200;12.418;2022-07-23T10:06:54;96967.25;;;27.12;41.82
50977;BME280;36992;48.200;12.418;2022-07-23T10:09:25;96955.41;;;27.15;41.34
50977;BME280;36992;48.200;12.418;2022-07-23T10:11:55;96955.41;;;27.11;42.05
50977;BME280;36992;48.200;12.418;2022-07-23T10:14:26;96956.19;;;27.12;42.15
50977;BME280;36992;48.200;12.418;2022-07-23T10:16:56;96957.00;;;27.12;41.79
50977;BME280;36992;48.200;12.418;2022-07-23T10:19:23;96945.13;;;27.15;41.73
50977;BME280;36992;48.200;12.418;2022-07-23T10:21:56;96941.97;;;27.20;41.91
50977;BME280;36992;48.200;12.418;2022-07-23T10:24:30;96947.50;;;27.24;41.93
50977;BME280;36992;48.200;12.418;2022-07-23T10:27:14;96945.13;;;27.26;42.00
50977;BME280;36992;48.200;12.418;2022-07-23T10:29:50;96943.53;;;27.25;41.47
50977;BME280;36992;48.200;12.418;2022-07-23T10:32:26;96930.50;;;27.29;41.21
50977;BME280;36992;48.200;12.418;2022-07-23T10:35:10;96929.31;;;27.30;41.52
50977;BME280;36992;48.200;12.418;2022-07-23T10:37:43;96932.88;;;27.31;41.88
50977;BME280;36992;48.200;12.418;2022-07-23T10:40:15;96940.75;;;27.32;41.71
50977;BME280;36992;48.200;12.418;2022-07-23T10:42:43;96941.94;;;27.31;41.78
50977;BME280;36992;48.200;12.418;2022-07-23T10:45:23;96950.63;;;27.41;41.01
50977;BME280;36992;48.200;12.418;2022-07-23T10:47:50;96951.41;;;27.34;41.28
50977;BME280;36992;48.200;12.418;2022-07-23T10:50:19;96948.28;;;27.36;41.63
50977;BME280;36992;48.200;12.418;2022-07-23T10:53:13;96959.69;;;27.45;41.65
50977;BME280;36992;48.200;12.418;2022-07-23T10:55:49;96947.03;;;27.51;41.53
50977;BME280;36992;48.200;12.418;2022-07-23T11:01:33;96931.19;;;27.70;40.87
50977;BME280;36992;48.200;12.418;2022-07-23T11:04:00;96915.38;;;27.70;41.18
50977;BME280;36992;48.200;12.418;2022-07-23T11:09:30;96908.59;;;27.86;40.46
50977;BME280;36992;48.200;12.418;2022-07-23T11:12:34;96902.19;;;28.00;40.55
50977;BME280;36992;48.200;12.418;2022-07-23T11:15:09;96888.72;;;28.02;40.42
50977;BME280;36992;48.200;12.418;2022-07-23T11:17:37;96886.72;;;28.06;40.33
50977;BME280;36992;48.200;12.418;2022-07-23T11:20:20;96877.19;;;28.22;40.31
50977;BME280;36992;48.200;12.418;2022-07-23T11:22:51;96867.25;;;28.21;38.33
50977;BME280;36992;48.200;12.418;2022-07-23T11:25:34;96879.50;;;28.27;38.58
50977;BME280;36992;48.200;12.418;2022-07-23T11:28:13;96890.16;;;28.32;38.10
50977;BME280;36992;48.200;12.418;2022-07-23T11:30:42;96894.13;;;28.31;38.22
50977;BME280;36992;48.200;12.418;2022-07-23T11:33:20;96891.69;;;28.40;38.39
50977;BME280;36992;48.200;12.418;2022-07-23T11:35:49;96893.25;;;28.41;38.11
50977;BME280;36992;48.200;12.418;2022-07-23T11:38:18;96884.53;;;28.47;38.23
50977;BME280;36992;48.200;12.418;2022-07-23T11:40:50;96892.38;;;28.52;39.20
50977;BME280;36992;48.200;12.418;2022-07-23T11:43:17;96896.31;;;28.54;39.84
50977;BME280;36992;48.200;12.418;2022-07-23T11:45:46;96896.69;;;28.60;40.31
50977;BME280;36992;48.200;12.418;2022-07-23T11:48:17;96896.25;;;28.65;38.80
50977;BME280;36992;48.200;12.418;2022-07-23T11:50:44;96889.09;;;28.64;39.14
50977;BME280;36992;48.200;12.418;2022-07-23T11:53:11;96888.31;;;28.67;38.75
50977;BME280;36992;48.200;12.418;2022-07-23T11:55:38;96890.25;;;28.71;39.57
50977;BME280;36992;48.200;12.418;2022-07-23T11:58:06;96885.09;;;28.73;39.45
50977;BME280;36992;48.200;12.418;2022-07-23T12:00:32;96891.41;;;28.73;40.00
50977;BME280;36992;48.200;12.418;2022-07-23T12:03:00;96891.38;;;28.77;40.63
50977;BME280;36992;48.200;12.418;2022-07-23T12:05:28;96884.66;;;28.78;39.50
50977;BME280;36992;48.200;12.418;2022-07-23T12:07:56;96887.81;;;28.80;39.53
50977;BME280;36992;48.200;12.418;2022-07-23T12:10:25;96875.50;;;28.81;39.45
50977;BME280;36992;48.200;12.418;2022-07-23T12:12:55;96877.88;;;28.83;40.31
50977;BME280;36992;48.200;12.418;2022-07-23T12:15:25;96880.66;;;28.86;39.77
50977;BME280;36992;48.200;12.418;2022-07-23T12:17:52;96877.06;;;28.86;40.33
50977;BME280;36992;48.200;12.418;2022-07-23T12:20:22;96875.47;;;28.88;40.31
50977;BME280;36992;48.200;12.418;2022-07-23T12:22:52;96875.47;;;28.88;39.95
50977;BME280;36992;48.200;12.418;2022-07-23T12:25:21;96869.13;;;28.91;39.88
50977;BME280;36992;48.200;12.418;2022-07-23T12:27:58;96867.47;;;28.98;40.02
50977;BME280;36992;48.200;12.418;2022-07-23T12:30:28;96875.41;;;28.95;39.64
50977;BME280;36992;48.200;12.418;2022-07-23T12:32:56;96871.06;;;28.94;39.31
50977;BME280;36992;48.200;12.418;2022-07-23T12:35:29;96869.84;;;28.95;39.47
50977;BME280;36992;48.200;12.418;2022-07-23T12:38:00;96867.84;;;29.00;39.35
50977;BME280;36992;48.200;12.418;2022-07-23T12:40:29;96869.03;;;28.99;39.75
50977;BME280;36992;48.200;12.418;2022-07-23T12:42:58;96870.63;;;29.00;39.76
50977;BME280;36992;48.200;12.418;2022-07-23T12:45:27;96874.59;;;28.99;39.80
50977;BME280;36992;48.200;12.418;2022-07-23T12:48:00;96871.41;;;29.00;40.16
50977;BME280;36992;48.200;12.418;2022-07-23T12:50:37;96861.84;;;29.05;39.93
50977;BME280;36992;48.200;12.418;2022-07-23T12:53:06;96865.06;;;29.00;39.96
50977;BME280;36992;48.200;12.418;2022-07-23T12:55:33;96862.69;;;28.98;39.69
50977;BME280;36992;48.200;12.418;2022-07-23T12:58:04;96865.44;;;29.02;39.83
50977;BME280;36992;48.200;12.418;2022-07-23T13:00:58;96860.28;;;29.04;39.64